Terminal Aerodrome Forecast
Issued by NWS Cleveland, OH

Home | Current Version | Previous Version | Text Only | Print | Product List | Glossary Off
Versions: 1 2 3 4 5 6 7 8 9 10 11 12 13 14 15 16 17

000
FTUS41 KCLE 231014 AAA
TAFERI
TAF AMD
KERI 231014Z 2310/2406 19008KT P6SM SCT030 BKN080
     FM231300 20013G20KT P6SM -SHRA BKN025 OVC060
      TEMPO 2313/2316 3SM -SHRA OVC015
     FM231600 22012G22KT 5SM -SHRA VCTS BKN015CB OVC025
      TEMPO 2317/2319 24012KT 1SM TSRA OVC005CB
     FM232300 25010KT P6SM BKN015 OVC025=

USA.gov is the U.S. government's official web portal to all federal, state and local government web resources and services.